sensor_id;sensor_type;location;lat;lon;timestamp;P1;durP1;ratioP1;P2;durP2;ratioP2
13795;SDS011;40911;51.552;9.874;2023-11-19T00:01:31;5.13;;;3.92;;
13795;SDS011;40911;51.552;9.874;2023-11-19T00:03:53;7.38;;;4.43;;
13795;SDS011;40911;51.552;9.874;2023-11-19T00:06:15;12.45;;;7.28;;
13795;SDS011;40911;51.552;9.874;2023-11-19T00:08:37;5.05;;;4.55;;
13795;SDS011;40911;51.552;9.874;2023-11-19T00:10:59;4.07;;;3.67;;
13795;SDS011;40911;51.552;9.874;2023-11-19T00:13:21;3.85;;;3.55;;
13795;SDS011;40911;51.552;9.874;2023-11-19T00:15:45;4.85;;;3.42;;
13795;SDS011;40911;51.552;9.874;2023-11-19T00:18:07;3.95;;;3.65;;
13795;SDS011;40911;51.552;9.874;2023-11-19T00:20:29;4.15;;;3.75;;
13795;SDS011;40911;51.552;9.874;2023-11-19T00:22:51;6.55;;;4.55;;
13795;SDS011;40911;51.552;9.874;2023-11-19T00:25:12;4.05;;;3.58;;
13795;SDS011;40911;51.552;9.874;2023-11-19T00:29:56;4.13;;;3.67;;
13795;SDS011;40911;51.552;9.874;2023-11-19T00:32:19;4.28;;;3.58;;
13795;SDS011;40911;51.552;9.874;2023-11-19T00:34:43;4.30;;;3.90;;
13795;SDS011;40911;51.552;9.874;2023-11-19T00:37:05;5.40;;;4.03;;
13795;SDS011;40911;51.552;9.874;2023-11-19T00:39:26;4.07;;;3.75;;
13795;SDS011;40911;51.552;9.874;2023-11-19T00:41:48;4.40;;;4.00;;
13795;SDS011;40911;51.552;9.874;2023-11-19T00:44:10;6.47;;;4.40;;
13795;SDS011;40911;51.552;9.874;2023-11-19T00:46:31;4.20;;;3.90;;
13795;SDS011;40911;51.552;9.874;2023-11-19T00:48:54;4.15;;;3.75;;
13795;SDS011;40911;51.552;9.874;2023-11-19T00:51:19;4.25;;;3.80;;
13795;SDS011;40911;51.552;9.874;2023-11-19T00:53:40;5.85;;;4.25;;
13795;SDS011;40911;51.552;9.874;2023-11-19T00:56:02;4.80;;;4.18;;
13795;SDS011;40911;51.552;9.874;2023-11-19T00:58:24;4.03;;;3.72;;
13795;SDS011;40911;51.552;9.874;2023-11-19T01:00:45;4.38;;;3.97;;
13795;SDS011;40911;51.552;9.874;2023-11-19T01:03:07;4.22;;;3.92;;
13795;SDS011;40911;51.552;9.874;2023-11-19T01:05:30;4.15;;;3.80;;
13795;SDS011;40911;51.552;9.874;2023-11-19T01:07:52;5.90;;;4.10;;
13795;SDS011;40911;51.552;9.874;2023-11-19T01:12:35;4.72;;;3.90;;
13795;SDS011;40911;51.552;9.874;2023-11-19T01:14:57;5.22;;;3.90;;
13795;SDS011;40911;51.552;9.874;2023-11-19T01:17:19;4.45;;;4.05;;
13795;SDS011;40911;51.552;9.874;2023-11-19T01:19:41;6.18;;;4.05;;
13795;SDS011;40911;51.552;9.874;2023-11-19T01:22:04;4.25;;;3.63;;
13795;SDS011;40911;51.552;9.874;2023-11-19T01:24:25;4.20;;;3.80;;
13795;SDS011;40911;51.552;9.874;2023-11-19T01:26:48;4.20;;;3.80;;
13795;SDS011;40911;51.552;9.874;2023-11-19T01:29:10;4.38;;;4.00;;
13795;SDS011;40911;51.552;9.874;2023-11-19T01:31:33;5.30;;;4.05;;
13795;SDS011;40911;51.552;9.874;2023-11-19T01:33:55;3.80;;;3.50;;
13795;SDS011;40911;51.552;9.874;2023-11-19T01:36:16;4.28;;;3.88;;
13795;SDS011;40911;51.552;9.874;2023-11-19T01:38:39;4.03;;;3.70;;
13795;SDS011;40911;51.552;9.874;2023-11-19T01:41:01;4.78;;;3.35;;
13795;SDS011;40911;51.552;9.874;2023-11-19T01:43:33;4.20;;;3.80;;
13795;SDS011;40911;51.552;9.874;2023-11-19T01:45:55;4.00;;;3.70;;
13795;SDS011;40911;51.552;9.874;2023-11-19T01:48:17;3.90;;;3.47;;
13795;SDS011;40911;51.552;9.874;2023-11-19T01:50:38;4.38;;;3.97;;
13795;SDS011;40911;51.552;9.874;2023-11-19T01:53:00;4.07;;;3.78;;
13795;SDS011;40911;51.552;9.874;2023-11-19T01:55:23;4.00;;;3.70;;
13795;SDS011;40911;51.552;9.874;2023-11-19T01:57:46;5.45;;;3.95;;
13795;SDS011;40911;51.552;9.874;2023-11-19T02:00:09;4.30;;;3.90;;
13795;SDS011;40911;51.552;9.874;2023-11-19T02:02:33;4.53;;;4.10;;
13795;SDS011;40911;51.552;9.874;2023-11-19T02:04:55;4.03;;;3.63;;
13795;SDS011;40911;51.552;9.874;2023-11-19T02:07:17;4.10;;;3.70;;
13795;SDS011;40911;51.552;9.874;2023-11-19T02:09:40;4.30;;;3.90;;
13795;SDS011;40911;51.552;9.874;2023-11-19T02:12:05;4.40;;;4.00;;
13795;SDS011;40911;51.552;9.874;2023-11-19T02:14:28;4.50;;;4.10;;
13795;SDS011;40911;51.552;9.874;2023-11-19T02:16:51;3.97;;;3.63;;
13795;SDS011;40911;51.552;9.874;2023-11-19T02:19:12;4.43;;;3.63;;
13795;SDS011;40911;51.552;9.874;2023-11-19T02:21:34;4.05;;;3.72;;
13795;SDS011;40911;51.552;9.874;2023-11-19T02:23:55;4.00;;;3.63;;
13795;SDS011;40911;51.552;9.874;2023-11-19T02:26:18;4.55;;;3.83;;
13795;SDS011;40911;51.552;9.874;2023-11-19T02:28:48;4.13;;;3.78;;
13795;SDS011;40911;51.552;9.874;2023-11-19T02:31:10;2.60;;;2.40;;
13795;SDS011;40911;51.552;9.874;2023-11-19T02:33:32;2.28;;;2.17;;
13795;SDS011;40911;51.552;9.874;2023-11-19T02:38:15;2.28;;;2.17;;
13795;SDS011;40911;51.552;9.874;2023-11-19T02:40:37;2.40;;;2.30;;
13795;SDS011;40911;51.552;9.874;2023-11-19T02:42:58;2.60;;;2.40;;
13795;SDS011;40911;51.552;9.874;2023-11-19T02:45:21;2.55;;;2.45;;
13795;SDS011;40911;51.552;9.874;2023-11-19T02:47:44;2.47;;;2.38;;
13795;SDS011;40911;51.552;9.874;2023-11-19T02:52:33;2.83;;;2.63;;
13795;SDS011;40911;51.552;9.874;2023-11-19T02:54:57;2.53;;;2.42;;
13795;SDS011;40911;51.552;9.874;2023-11-19T02:57:19;2.75;;;2.60;;
13795;SDS011;40911;51.552;9.874;2023-11-19T02:59:41;3.10;;;2.90;;
13795;SDS011;40911;51.552;9.874;2023-11-19T03:02:05;2.60;;;2.47;;
13795;SDS011;40911;51.552;9.874;2023-11-19T03:04:27;2.35;;;2.25;;
13795;SDS011;40911;51.552;9.874;2023-11-19T03:06:49;2.97;;;2.78;;
13795;SDS011;40911;51.552;9.874;2023-11-19T03:09:10;2.83;;;2.63;;
13795;SDS011;40911;51.552;9.874;2023-11-19T03:11:32;3.00;;;2.80;;
13795;SDS011;40911;51.552;9.874;2023-11-19T03:13:54;2.92;;;2.72;;
13795;SDS011;40911;51.552;9.874;2023-11-19T03:16:15;2.95;;;2.67;;
13795;SDS011;40911;51.552;9.874;2023-11-19T03:18:38;2.67;;;2.47;;
13795;SDS011;40911;51.552;9.874;2023-11-19T03:21:00;2.63;;;2.42;;
13795;SDS011;40911;51.552;9.874;2023-11-19T03:23:23;2.42;;;2.33;;
13795;SDS011;40911;51.552;9.874;2023-11-19T03:25:45;2.60;;;2.40;;
13795;SDS011;40911;51.552;9.874;2023-11-19T03:28:06;2.50;;;2.30;;
13795;SDS011;40911;51.552;9.874;2023-11-19T03:30:28;3.00;;;2.80;;
13795;SDS011;40911;51.552;9.874;2023-11-19T03:32:50;2.45;;;2.30;;
13795;SDS011;40911;51.552;9.874;2023-11-19T03:35:13;2.58;;;2.40;;
13795;SDS011;40911;51.552;9.874;2023-11-19T03:37:35;2.30;;;2.20;;
13795;SDS011;40911;51.552;9.874;2023-11-19T03:39:57;2.38;;;2.25;;
13795;SDS011;40911;51.552;9.874;2023-11-19T03:42:20;2.28;;;2.03;;
13795;SDS011;40911;51.552;9.874;2023-11-19T03:44:41;2.45;;;2.22;;
13795;SDS011;40911;51.552;9.874;2023-11-19T03:47:03;2.10;;;2.00;;
13795;SDS011;40911;51.552;9.874;2023-11-19T03:49:26;2.30;;;2.20;;
13795;SDS011;40911;51.552;9.874;2023-11-19T03:51:49;2.50;;;2.30;;
13795;SDS011;40911;51.552;9.874;2023-11-19T03:54:11;2.10;;;2.00;;
13795;SDS011;40911;51.552;9.874;2023-11-19T03:56:32;2.40;;;2.20;;
13795;SDS011;40911;51.552;9.874;2023-11-19T03:58:54;2.33;;;2.22;;
13795;SDS011;40911;51.552;9.874;2023-11-19T04:01:15;2.40;;;2.20;;
13795;SDS011;40911;51.552;9.874;2023-11-19T04:03:37;3.00;;;2.20;;
13795;SDS011;40911;51.552;9.874;2023-11-19T04:05:59;2.05;;;1.88;;
13795;SDS011;40911;51.552;9.874;2023-11-19T04:08:22;2.40;;;2.30;;
13795;SDS011;40911;51.552;9.874;2023-11-19T04:10:43;2.00;;;1.90;;
13795;SDS011;40911;51.552;9.874;2023-11-19T04:13:05;2.28;;;2.08;;
13795;SDS011;40911;51.552;9.874;2023-11-19T04:15:27;2.30;;;2.13;;
13795;SDS011;40911;51.552;9.874;2023-11-19T04:17:49;2.17;;;1.98;;
13795;SDS011;40911;51.552;9.874;2023-11-19T04:20:11;1.90;;;1.80;;
13795;SDS011;40911;51.552;9.874;2023-11-19T04:22:33;1.75;;;1.65;;
13795;SDS011;40911;51.552;9.874;2023-11-19T04:24:56;1.63;;;1.52;;
13795;SDS011;40911;51.552;9.874;2023-11-19T04:27:18;1.75;;;1.65;;
13795;SDS011;40911;51.552;9.874;2023-11-19T04:29:40;1.70;;;1.60;;
13795;SDS011;40911;51.552;9.874;2023-11-19T04:32:01;1.50;;;1.50;;
13795;SDS011;40911;51.552;9.874;2023-11-19T04:36:45;1.75;;;1.65;;
13795;SDS011;40911;51.552;9.874;2023-11-19T04:39:07;1.90;;;1.80;;
13795;SDS011;40911;51.552;9.874;2023-11-19T04:41:33;1.83;;;1.73;;
13795;SDS011;40911;51.552;9.874;2023-11-19T04:43:55;1.75;;;1.65;;
13795;SDS011;40911;51.552;9.874;2023-11-19T04:46:17;2.10;;;1.90;;
13795;SDS011;40911;51.552;9.874;2023-11-19T04:48:39;2.03;;;1.92;;
13795;SDS011;40911;51.552;9.874;2023-11-19T04:51:00;2.30;;;2.20;;
13795;SDS011;40911;51.552;9.874;2023-11-19T04:53:23;2.10;;;2.00;;
13795;SDS011;40911;51.552;9.874;2023-11-19T04:55:44;2.17;;;2.08;;
13795;SDS011;40911;51.552;9.874;2023-11-19T04:58:07;2.30;;;2.20;;
13795;SDS011;40911;51.552;9.874;2023-11-19T05:00:29;2.20;;;2.10;;
13795;SDS011;40911;51.552;9.874;2023-11-19T05:02:51;2.42;;;2.30;;
13795;SDS011;40911;51.552;9.874;2023-11-19T05:05:12;2.45;;;2.35;;
13795;SDS011;40911;51.552;9.874;2023-11-19T05:09:56;3.75;;;2.00;;
13795;SDS011;40911;51.552;9.874;2023-11-19T05:12:18;2.45;;;2.30;;
13795;SDS011;40911;51.552;9.874;2023-11-19T05:14:41;4.07;;;2.38;;
13795;SDS011;40911;51.552;9.874;2023-11-19T05:17:09;2.70;;;2.50;;
13795;SDS011;40911;51.552;9.874;2023-11-19T05:19:31;2.78;;;2.58;;
13795;SDS011;40911;51.552;9.874;2023-11-19T05:21:53;2.88;;;2.67;;
13795;SDS011;40911;51.552;9.874;2023-11-19T05:24:14;4.63;;;2.50;;
13795;SDS011;40911;51.552;9.874;2023-11-19T05:26:36;2.58;;;2.40;;
13795;SDS011;40911;51.552;9.874;2023-11-19T05:28:58;2.80;;;2.60;;
13795;SDS011;40911;51.552;9.874;2023-11-19T05:31:21;2.75;;;2.55;;
13795;SDS011;40911;51.552;9.874;2023-11-19T05:33:42;2.58;;;2.38;;
13795;SDS011;40911;51.552;9.874;2023-11-19T05:38:28;2.63;;;2.42;;
13795;SDS011;40911;51.552;9.874;2023-11-19T05:40:49;2.80;;;2.33;;
13795;SDS011;40911;51.552;9.874;2023-11-19T05:43:11;2.95;;;2.75;;
13795;SDS011;40911;51.552;9.874;2023-11-19T05:45:35;2.70;;;2.50;;
13795;SDS011;40911;51.552;9.874;2023-11-19T05:47:58;3.00;;;2.45;;
13795;SDS011;40911;51.552;9.874;2023-11-19T05:50:19;2.60;;;2.40;;
13795;SDS011;40911;51.552;9.874;2023-11-19T05:55:03;3.25;;;2.25;;
13795;SDS011;40911;51.552;9.874;2023-11-19T05:57:29;2.50;;;2.30;;
13795;SDS011;40911;51.552;9.874;2023-11-19T06:02:13;2.08;;;1.98;;
13795;SDS011;40911;51.552;9.874;2023-11-19T06:04:36;2.25;;;2.05;;
13795;SDS011;40911;51.552;9.874;2023-11-19T06:06:58;2.08;;;1.80;;
13795;SDS011;40911;51.552;9.874;2023-11-19T06:09:20;1.75;;;1.63;;
13795;SDS011;40911;51.552;9.874;2023-11-19T06:11:43;1.80;;;1.70;;
13795;SDS011;40911;51.552;9.874;2023-11-19T06:14:06;1.98;;;1.80;;
13795;SDS011;40911;51.552;9.874;2023-11-19T06:16:28;2.50;;;1.70;;
13795;SDS011;40911;51.552;9.874;2023-11-19T06:18:50;2.85;;;2.25;;
13795;SDS011;40911;51.552;9.874;2023-11-19T06:21:13;2.53;;;2.33;;
13795;SDS011;40911;51.552;9.874;2023-11-19T06:23:34;2.40;;;2.20;;
13795;SDS011;40911;51.552;9.874;2023-11-19T06:25:56;2.90;;;2.60;;
13795;SDS011;40911;51.552;9.874;2023-11-19T06:28:18;3.40;;;2.72;;
13795;SDS011;40911;51.552;9.874;2023-11-19T06:30:39;6.90;;;2.70;;
13795;SDS011;40911;51.552;9.874;2023-11-19T06:33:01;2.85;;;2.65;;
13795;SDS011;40911;51.552;9.874;2023-11-19T06:35:23;5.43;;;3.20;;
13795;SDS011;40911;51.552;9.874;2023-11-19T06:37:46;3.35;;;3.03;;
13795;SDS011;40911;51.552;9.874;2023-11-19T06:40:08;3.65;;;3.17;;
13795;SDS011;40911;51.552;9.874;2023-11-19T06:42:30;4.00;;;3.20;;
13795;SDS011;40911;51.552;9.874;2023-11-19T06:47:13;3.25;;;3.05;;
13795;SDS011;40911;51.552;9.874;2023-11-19T06:49:35;4.68;;;3.33;;
13795;SDS011;40911;51.552;9.874;2023-11-19T06:51:58;5.95;;;3.90;;
13795;SDS011;40911;51.552;9.874;2023-11-19T06:54:21;4.90;;;3.63;;
13795;SDS011;40911;51.552;9.874;2023-11-19T06:56:43;5.55;;;3.30;;
13795;SDS011;40911;51.552;9.874;2023-11-19T07:01:26;6.65;;;3.50;;
13795;SDS011;40911;51.552;9.874;2023-11-19T07:03:48;4.20;;;3.80;;
13795;SDS011;40911;51.552;9.874;2023-11-19T07:06:11;4.00;;;3.60;;
13795;SDS011;40911;51.552;9.874;2023-11-19T07:08:33;5.57;;;3.33;;
13795;SDS011;40911;51.552;9.874;2023-11-19T07:10:58;6.30;;;3.83;;
13795;SDS011;40911;51.552;9.874;2023-11-19T07:13:19;3.50;;;3.20;;
13795;SDS011;40911;51.552;9.874;2023-11-19T07:15:41;3.90;;;3.60;;
13795;SDS011;40911;51.552;9.874;2023-11-19T07:18:03;5.32;;;3.55;;
13795;SDS011;40911;51.552;9.874;2023-11-19T07:20:24;5.50;;;3.33;;
13795;SDS011;40911;51.552;9.874;2023-11-19T07:22:46;5.63;;;3.30;;
13795;SDS011;40911;51.552;9.874;2023-11-19T07:25:09;4.60;;;3.38;;
13795;SDS011;40911;51.552;9.874;2023-11-19T07:27:32;3.28;;;3.00;;
13795;SDS011;40911;51.552;9.874;2023-11-19T07:29:53;5.13;;;3.22;;
13795;SDS011;40911;51.552;9.874;2023-11-19T07:32:15;4.55;;;3.28;;
13795;SDS011;40911;51.552;9.874;2023-11-19T07:36:58;6.50;;;3.22;;
13795;SDS011;40911;51.552;9.874;2023-11-19T07:39:22;7.13;;;3.40;;
13795;SDS011;40911;51.552;9.874;2023-11-19T07:41:44;6.70;;;3.60;;
13795;SDS011;40911;51.552;9.874;2023-11-19T07:44:07;7.28;;;3.50;;
13795;SDS011;40911;51.552;9.874;2023-11-19T07:46:28;7.43;;;3.80;;
13795;SDS011;40911;51.552;9.874;2023-11-19T07:48:50;9.85;;;4.43;;
13795;SDS011;40911;51.552;9.874;2023-11-19T07:51:13;6.20;;;3.25;;
13795;SDS011;40911;51.552;9.874;2023-11-19T07:53:35;8.50;;;3.42;;
13795;SDS011;40911;51.552;9.874;2023-11-19T07:55:58;6.43;;;2.95;;
13795;SDS011;40911;51.552;9.874;2023-11-19T07:58:20;8.25;;;3.63;;
13795;SDS011;40911;51.552;9.874;2023-11-19T08:00:44;4.72;;;3.10;;
13795;SDS011;40911;51.552;9.874;2023-11-19T08:03:06;4.90;;;3.03;;
13795;SDS011;40911;51.552;9.874;2023-11-19T08:07:49;7.65;;;3.42;;
13795;SDS011;40911;51.552;9.874;2023-11-19T08:10:11;9.43;;;4.28;;
13795;SDS011;40911;51.552;9.874;2023-11-19T08:12:33;8.55;;;3.58;;
13795;SDS011;40911;51.552;9.874;2023-11-19T08:14:55;6.80;;;2.83;;
13795;SDS011;40911;51.552;9.874;2023-11-19T08:17:19;10.55;;;2.88;;
13795;SDS011;40911;51.552;9.874;2023-11-19T08:19:43;6.40;;;2.58;;
13795;SDS011;40911;51.552;9.874;2023-11-19T08:22:04;9.20;;;3.05;;
13795;SDS011;40911;51.552;9.874;2023-11-19T08:24:26;7.22;;;2.78;;
13795;SDS011;40911;51.552;9.874;2023-11-19T08:29:09;4.97;;;2.85;;
13795;SDS011;40911;51.552;9.874;2023-11-19T08:31:31;10.48;;;3.42;;
13795;SDS011;40911;51.552;9.874;2023-11-19T08:33:54;8.90;;;3.22;;
13795;SDS011;40911;51.552;9.874;2023-11-19T08:36:16;7.03;;;3.00;;
13795;SDS011;40911;51.552;9.874;2023-11-19T08:40:59;4.60;;;2.67;;
13795;SDS011;40911;51.552;9.874;2023-11-19T08:43:21;9.25;;;3.10;;
13795;SDS011;40911;51.552;9.874;2023-11-19T08:45:44;6.57;;;3.20;;
13795;SDS011;40911;51.552;9.874;2023-11-19T08:48:05;9.15;;;3.10;;
13795;SDS011;40911;51.552;9.874;2023-11-19T08:50:28;6.13;;;2.83;;
13795;SDS011;40911;51.552;9.874;2023-11-19T08:52:50;13.85;;;2.78;;
13795;SDS011;40911;51.552;9.874;2023-11-19T08:55:11;12.75;;;2.70;;
13795;SDS011;40911;51.552;9.874;2023-11-19T08:57:33;10.60;;;2.55;;
13795;SDS011;40911;51.552;9.874;2023-11-19T08:59:55;13.27;;;3.30;;
13795;SDS011;40911;51.552;9.874;2023-11-19T09:02:16;11.98;;;2.95;;
13795;SDS011;40911;51.552;9.874;2023-11-19T09:04:39;15.32;;;3.03;;
13795;SDS011;40911;51.552;9.874;2023-11-19T09:07:02;10.65;;;2.75;;
13795;SDS011;40911;51.552;9.874;2023-11-19T09:09:24;12.98;;;3.25;;
13795;SDS011;40911;51.552;9.874;2023-11-19T09:11:46;14.18;;;2.97;;
13795;SDS011;40911;51.552;9.874;2023-11-19T09:14:07;19.58;;;3.20;;
13795;SDS011;40911;51.552;9.874;2023-11-19T09:16:29;15.52;;;3.00;;
13795;SDS011;40911;51.552;9.874;2023-11-19T09:18:51;12.27;;;3.17;;
13795;SDS011;40911;51.552;9.874;2023-11-19T09:21:12;20.25;;;3.78;;
13795;SDS011;40911;51.552;9.874;2023-11-19T09:23:35;11.13;;;3.22;;
13795;SDS011;40911;51.552;9.874;2023-11-19T09:25:59;17.02;;;3.30;;
13795;SDS011;40911;51.552;9.874;2023-11-19T09:28:21;15.63;;;3.92;;
13795;SDS011;40911;51.552;9.874;2023-11-19T09:30:41;14.50;;;3.30;;
13795;SDS011;40911;51.552;9.874;2023-11-19T09:35:25;12.48;;;3.20;;
13795;SDS011;40911;51.552;9.874;2023-11-19T09:37:47;18.75;;;4.95;;
13795;SDS011;40911;51.552;9.874;2023-11-19T09:40:10;15.30;;;2.90;;
13795;SDS011;40911;51.552;9.874;2023-11-19T09:42:32;14.70;;;2.80;;
13795;SDS011;40911;51.552;9.874;2023-11-19T09:45:03;10.88;;;3.33;;
13795;SDS011;40911;51.552;9.874;2023-11-19T09:47:33;16.27;;;3.30;;
13795;SDS011;40911;51.552;9.874;2023-11-19T09:52:16;14.13;;;3.88;;
13795;SDS011;40911;51.552;9.874;2023-11-19T09:57:01;12.18;;;2.53;;
13795;SDS011;40911;51.552;9.874;2023-11-19T09:59:23;14.90;;;3.13;;
13795;SDS011;40911;51.552;9.874;2023-11-19T10:01:46;17.48;;;3.33;;
13795;SDS011;40911;51.552;9.874;2023-11-19T10:04:08;12.98;;;2.90;;
13795;SDS011;40911;51.552;9.874;2023-11-19T10:06:32;14.52;;;3.47;;
13795;SDS011;40911;51.552;9.874;2023-11-19T10:11:16;9.07;;;3.22;;
13795;SDS011;40911;51.552;9.874;2023-11-19T10:13:39;15.82;;;3.33;;
13795;SDS011;40911;51.552;9.874;2023-11-19T10:16:03;11.63;;;2.83;;
13795;SDS011;40911;51.552;9.874;2023-11-19T10:18:26;14.85;;;3.05;;
13795;SDS011;40911;51.552;9.874;2023-11-19T10:20:47;13.02;;;2.85;;
13795;SDS011;40911;51.552;9.874;2023-11-19T10:23:09;14.15;;;2.80;;
13795;SDS011;40911;51.552;9.874;2023-11-19T10:25:32;18.63;;;4.38;;
13795;SDS011;40911;51.552;9.874;2023-11-19T10:27:54;13.02;;;2.67;;
13795;SDS011;40911;51.552;9.874;2023-11-19T10:30:18;15.15;;;3.28;;
13795;SDS011;40911;51.552;9.874;2023-11-19T10:32:42;10.55;;;2.53;;
13795;SDS011;40911;51.552;9.874;2023-11-19T10:35:04;14.18;;;3.50;;
13795;SDS011;40911;51.552;9.874;2023-11-19T10:37:27;12.77;;;2.67;;
13795;SDS011;40911;51.552;9.874;2023-11-19T10:39:51;17.40;;;3.85;;
13795;SDS011;40911;51.552;9.874;2023-11-19T10:42:15;19.67;;;3.53;;
13795;SDS011;40911;51.552;9.874;2023-11-19T10:44:37;24.27;;;7.53;;
13795;SDS011;40911;51.552;9.874;2023-11-19T10:47:00;17.20;;;4.60;;
13795;SDS011;40911;51.552;9.874;2023-11-19T10:49:22;13.73;;;2.95;;
13795;SDS011;40911;51.552;9.874;2023-11-19T10:51:44;13.52;;;2.85;;
13795;SDS011;40911;51.552;9.874;2023-11-19T10:54:07;17.52;;;3.72;;
13795;SDS011;40911;51.552;9.874;2023-11-19T10:56:31;15.35;;;2.92;;
13795;SDS011;40911;51.552;9.874;2023-11-19T10:58:53;12.52;;;2.92;;
13795;SDS011;40911;51.552;9.874;2023-11-19T11:01:19;11.02;;;2.78;;
13795;SDS011;40911;51.552;9.874;2023-11-19T11:03:43;16.73;;;3.15;;
13795;SDS011;40911;51.552;9.874;2023-11-19T11:06:06;16.55;;;3.17;;
13795;SDS011;40911;51.552;9.874;2023-11-19T11:08:29;13.40;;;3.05;;
13795;SDS011;40911;51.552;9.874;2023-11-19T11:10:52;12.85;;;2.60;;
13795;SDS011;40911;51.552;9.874;2023-11-19T11:13:14;16.73;;;3.33;;
13795;SDS011;40911;51.552;9.874;2023-11-19T11:15:37;15.15;;;2.78;;
13795;SDS011;40911;51.552;9.874;2023-11-19T11:17:59;14.70;;;3.10;;
13795;SDS011;40911;51.552;9.874;2023-11-19T11:20:24;10.13;;;2.47;;
13795;SDS011;40911;51.552;9.874;2023-11-19T11:22:49;15.38;;;2.90;;
13795;SDS011;40911;51.552;9.874;2023-11-19T11:25:28;12.90;;;2.85;;
13795;SDS011;40911;51.552;9.874;2023-11-19T11:28:03;13.90;;;2.80;;
13795;SDS011;40911;51.552;9.874;2023-11-19T11:30:42;13.85;;;3.00;;
13795;SDS011;40911;51.552;9.874;2023-11-19T11:33:15;16.50;;;3.50;;
13795;SDS011;40911;51.552;9.874;2023-11-19T11:35:58;13.15;;;2.85;;
13795;SDS011;40911;51.552;9.874;2023-11-19T11:38:29;10.93;;;3.00;;
13795;SDS011;40911;51.552;9.874;2023-11-19T11:43:45;19.42;;;3.70;;
13795;SDS011;40911;51.552;9.874;2023-11-19T11:46:09;13.73;;;2.63;;
13795;SDS011;40911;51.552;9.874;2023-11-19T11:49:09;15.27;;;2.85;;
13795;SDS011;40911;51.552;9.874;2023-11-19T11:54:26;10.65;;;2.63;;
13795;SDS011;40911;51.552;9.874;2023-11-19T11:57:00;16.38;;;3.42;;
13795;SDS011;40911;51.552;9.874;2023-11-19T11:59:23;12.98;;;2.95;;
13795;SDS011;40911;51.552;9.874;2023-11-19T12:04:18;19.02;;;3.28;;
13795;SDS011;40911;51.552;9.874;2023-11-19T12:06:40;18.10;;;3.58;;
13795;SDS011;40911;51.552;9.874;2023-11-19T12:11:24;17.42;;;3.25;;
13795;SDS011;40911;51.552;9.874;2023-11-19T12:13:56;15.25;;;3.17;;
13795;SDS011;40911;51.552;9.874;2023-11-19T12:16:19;15.13;;;3.03;;
13795;SDS011;40911;51.552;9.874;2023-11-19T12:18:41;17.27;;;3.25;;
13795;SDS011;40911;51.552;9.874;2023-11-19T12:21:03;18.73;;;3.55;;
13795;SDS011;40911;51.552;9.874;2023-11-19T12:23:25;16.77;;;3.28;;
13795;SDS011;40911;51.552;9.874;2023-11-19T12:25:49;19.95;;;4.25;;
13795;SDS011;40911;51.552;9.874;2023-11-19T12:28:11;22.15;;;3.10;;
13795;SDS011;40911;51.552;9.874;2023-11-19T12:30:33;15.75;;;3.45;;
13795;SDS011;40911;51.552;9.874;2023-11-19T12:32:56;15.02;;;3.78;;
13795;SDS011;40911;51.552;9.874;2023-11-19T12:35:17;12.23;;;3.08;;
13795;SDS011;40911;51.552;9.874;2023-11-19T12:37:40;14.60;;;2.92;;
13795;SDS011;40911;51.552;9.874;2023-11-19T12:40:02;12.43;;;2.88;;
13795;SDS011;40911;51.552;9.874;2023-11-19T12:42:37;11.02;;;3.60;;
13795;SDS011;40911;51.552;9.874;2023-11-19T12:44:59;15.02;;;2.83;;
13795;SDS011;40911;51.552;9.874;2023-11-19T12:47:20;18.05;;;3.05;;
13795;SDS011;40911;51.552;9.874;2023-11-19T12:49:42;10.70;;;2.75;;
13795;SDS011;40911;51.552;9.874;2023-11-19T12:52:11;13.10;;;2.70;;
13795;SDS011;40911;51.552;9.874;2023-11-19T12:54:33;13.18;;;2.88;;
13795;SDS011;40911;51.552;9.874;2023-11-19T12:56:56;15.13;;;2.88;;
13795;SDS011;40911;51.552;9.874;2023-11-19T12:59:19;13.68;;;3.40;;
13795;SDS011;40911;51.552;9.874;2023-11-19T13:01:40;17.65;;;3.53;;
13795;SDS011;40911;51.552;9.874;2023-11-19T13:04:15;19.23;;;3.53;;
13795;SDS011;40911;51.552;9.874;2023-11-19T13:06:44;15.32;;;3.20;;
13795;SDS011;40911;51.552;9.874;2023-11-19T13:09:06;14.55;;;3.30;;
13795;SDS011;40911;51.552;9.874;2023-11-19T13:11:30;16.38;;;3.50;;
13795;SDS011;40911;51.552;9.874;2023-11-19T13:13:55;20.60;;;3.30;;
13795;SDS011;40911;51.552;9.874;2023-11-19T13:16:19;16.05;;;4.47;;
13795;SDS011;40911;51.552;9.874;2023-11-19T13:18:41;13.10;;;3.58;;
13795;SDS011;40911;51.552;9.874;2023-11-19T13:21:03;17.13;;;3.35;;
13795;SDS011;40911;51.552;9.874;2023-11-19T13:23:25;16.17;;;3.47;;
13795;SDS011;40911;51.552;9.874;2023-11-19T13:25:47;17.88;;;3.35;;
13795;SDS011;40911;51.552;9.874;2023-11-19T13:30:30;16.83;;;3.60;;
13795;SDS011;40911;51.552;9.874;2023-11-19T13:32:53;21.65;;;4.38;;
13795;SDS011;40911;51.552;9.874;2023-11-19T13:35:17;19.67;;;3.33;;
13795;SDS011;40911;51.552;9.874;2023-11-19T13:37:39;12.98;;;3.50;;
13795;SDS011;40911;51.552;9.874;2023-11-19T13:40:00;17.05;;;3.75;;
13795;SDS011;40911;51.552;9.874;2023-11-19T13:42:23;13.63;;;3.17;;
13795;SDS011;40911;51.552;9.874;2023-11-19T13:44:45;16.40;;;3.67;;
13795;SDS011;40911;51.552;9.874;2023-11-19T13:47:06;13.23;;;3.13;;
13795;SDS011;40911;51.552;9.874;2023-11-19T13:49:32;12.48;;;2.85;;
13795;SDS011;40911;51.552;9.874;2023-11-19T13:51:54;19.60;;;4.70;;
13795;SDS011;40911;51.552;9.874;2023-11-19T13:54:15;26.88;;;7.97;;
13795;SDS011;40911;51.552;9.874;2023-11-19T13:56:39;26.25;;;7.00;;
13795;SDS011;40911;51.552;9.874;2023-11-19T13:59:01;22.38;;;5.50;;
13795;SDS011;40911;51.552;9.874;2023-11-19T14:01:23;15.70;;;4.63;;
13795;SDS011;40911;51.552;9.874;2023-11-19T14:03:47;19.75;;;6.97;;
13795;SDS011;40911;51.552;9.874;2023-11-19T14:06:10;19.38;;;5.40;;
13795;SDS011;40911;51.552;9.874;2023-11-19T14:08:32;20.33;;;7.28;;
13795;SDS011;40911;51.552;9.874;2023-11-19T14:10:54;19.15;;;3.65;;
13795;SDS011;40911;51.552;9.874;2023-11-19T14:13:16;14.43;;;3.03;;
13795;SDS011;40911;51.552;9.874;2023-11-19T14:15:37;14.93;;;5.07;;
13795;SDS011;40911;51.552;9.874;2023-11-19T14:17:59;15.88;;;3.45;;
13795;SDS011;40911;51.552;9.874;2023-11-19T14:20:21;15.13;;;3.22;;
13795;SDS011;40911;51.552;9.874;2023-11-19T14:22:45;11.55;;;3.05;;
13795;SDS011;40911;51.552;9.874;2023-11-19T14:25:08;12.48;;;3.28;;
13795;SDS011;40911;51.552;9.874;2023-11-19T14:27:31;12.77;;;3.72;;
13795;SDS011;40911;51.552;9.874;2023-11-19T14:29:53;14.43;;;2.92;;
13795;SDS011;40911;51.552;9.874;2023-11-19T14:32:14;17.00;;;2.80;;
13795;SDS011;40911;51.552;9.874;2023-11-19T14:34:36;9.82;;;2.95;;
13795;SDS011;40911;51.552;9.874;2023-11-19T14:36:58;16.63;;;2.88;;
13795;SDS011;40911;51.552;9.874;2023-11-19T14:39:21;14.68;;;3.45;;
13795;SDS011;40911;51.552;9.874;2023-11-19T14:41:43;10.75;;;2.63;;
13795;SDS011;40911;51.552;9.874;2023-11-19T14:44:05;13.48;;;2.38;;
13795;SDS011;40911;51.552;9.874;2023-11-19T14:46:27;15.98;;;2.88;;
13795;SDS011;40911;51.552;9.874;2023-11-19T14:48:48;10.55;;;2.95;;
13795;SDS011;40911;51.552;9.874;2023-11-19T14:53:32;11.57;;;2.80;;
13795;SDS011;40911;51.552;9.874;2023-11-19T14:55:56;16.08;;;3.00;;
13795;SDS011;40911;51.552;9.874;2023-11-19T14:58:17;13.15;;;2.90;;
13795;SDS011;40911;51.552;9.874;2023-11-19T15:00:39;14.10;;;2.60;;
13795;SDS011;40911;51.552;9.874;2023-11-19T15:03:00;13.18;;;2.70;;
13795;SDS011;40911;51.552;9.874;2023-11-19T15:05:22;8.95;;;2.30;;
13795;SDS011;40911;51.552;9.874;2023-11-19T15:10:06;16.90;;;2.92;;
13795;SDS011;40911;51.552;9.874;2023-11-19T15:12:31;12.48;;;2.47;;
13795;SDS011;40911;51.552;9.874;2023-11-19T15:14:53;14.07;;;3.03;;
13795;SDS011;40911;51.552;9.874;2023-11-19T15:17:15;13.18;;;2.33;;
13795;SDS011;40911;51.552;9.874;2023-11-19T15:19:37;12.90;;;3.45;;